Time;durP1;ratioP1;P1;durP2;ratioP2;P2;SDS_P1;SDS_P2;PMS_P1;PMS_P2;Temp;Humidity;BMP_temperature;BMP_pressure;BME280_temperature;BME280_humidity;BME280_pressure;Samples;Min_cycle;Max_cycle;Signal;HPM_P1;HPM_P2
2022/08/12 00:43:29;;;;;;;9.30;4.03;;;18.70;99.90;;;;;;5155862;27;20343;-76
2022/08/12 00:48:40;;;;;;;6.20;4.07;;;18.60;99.90;;;;;;5155042;27;20057;-75
2022/08/12 00:51:09;;;;;;;9.68;4.13;;;18.50;99.90;;;;;;5119694;27;20099;-76
2022/08/12 00:53:36;;;;;;;9.77;3.95;;;18.50;99.90;;;;;;5154226;27;20107;-76
2022/08/12 00:56:04;;;;;;;9.88;4.05;;;18.50;99.90;;;;;;5153640;27;20146;-74
2022/08/12 00:58:31;;;;;;;8.23;4.55;;;18.40;99.90;;;;;;5136142;27;20541;-75
2022/08/12 01:01:03;;;;;;;8.63;4.00;;;18.40;99.90;;;;;;5136915;27;20053;-76
2022/08/12 01:11:50;;;;;;;11.40;4.40;;;18.20;99.90;;;;;;5116359;27;20047;-77
2022/08/12 01:14:22;;;;;;;11.15;4.57;;;18.10;99.90;;;;;;5124649;27;20039;-78
2022/08/12 01:16:50;;;;;;;11.57;4.30;;;18.10;99.90;;;;;;5121065;27;20043;-75
2022/08/12 01:19:20;;;;;;;10.05;4.50;;;18.10;99.90;;;;;;5108923;27;20043;-79
2022/08/12 01:22:30;;;;;;;8.00;4.00;;;18.10;99.90;;;;;;5115840;27;20047;-75
2022/08/12 01:25:11;;;;;;;9.82;4.13;;;18.00;99.90;;;;;;5130038;27;20408;-75
2022/08/12 01:27:39;;;;;;;8.35;4.22;;;18.00;99.90;;;;;;5107479;27;20467;-75
2022/08/12 01:30:07;;;;;;;12.70;4.32;;;17.90;99.90;;;;;;5154414;27;20042;-74
2022/08/12 01:32:36;;;;;;;8.65;4.28;;;17.90;99.90;;;;;;5153664;27;20498;-75
2022/08/12 01:35:10;;;;;;;13.45;4.00;;;17.90;99.90;;;;;;5154693;27;20502;-74
2022/08/12 01:38:04;;;;;;;9.13;4.50;;;17.90;99.90;;;;;;5133607;27;20250;-75
2022/08/12 01:40:33;;;;;;;10.13;4.07;;;17.90;99.90;;;;;;5149001;27;20067;-76
2022/08/12 01:43:09;;;;;;;8.45;4.47;;;17.80;99.90;;;;;;5118385;27;20090;-76
2022/08/12 01:45:40;;;;;;;9.57;4.70;;;17.80;99.90;;;;;;5153668;27;20057;-76
2022/08/12 01:48:21;;;;;;;11.00;4.50;;;17.80;99.90;;;;;;5136034;27;20091;-74
2022/08/12 01:51:02;;;;;;;10.52;4.22;;;17.70;99.90;;;;;;5152722;27;20486;-75
2022/08/12 01:53:45;;;;;;;11.43;4.60;;;17.70;99.90;;;;;;5117804;27;20046;-75
2022/08/12 01:56:13;;;;;;;11.15;5.00;;;17.60;99.90;;;;;;5153261;27;20053;-75
2022/08/12 02:01:33;;;;;;;12.02;4.65;;;17.60;99.90;;;;;;5152726;27;20126;-75
2022/08/12 02:13:32;;;;;;;6.32;4.38;;;17.50;99.90;;;;;;5134764;27;20088;-76
2022/08/12 02:16:07;;;;;;;11.32;5.07;;;17.50;99.90;;;;;;5135826;27;20394;-74
2022/08/12 02:18:54;;;;;;;7.72;4.93;;;17.40;99.90;;;;;;5153197;27;20066;-76
2022/08/12 02:21:49;;;;;;;9.68;4.63;;;17.40;99.90;;;;;;5134002;27;20047;-80
2022/08/12 02:24:19;;;;;;;8.17;4.63;;;17.30;99.90;;;;;;5154555;27;20136;-75
2022/08/12 02:26:48;;;;;;;9.35;4.60;;;17.30;99.90;;;;;;5154039;27;20046;-75
2022/08/12 02:29:15;;;;;;;9.18;4.85;;;17.20;99.90;;;;;;5152694;27;20069;-76
2022/08/12 02:31:42;;;;;;;9.02;4.43;;;17.20;99.90;;;;;;5135286;27;20276;-75
2022/08/12 02:34:08;;;;;;;12.20;5.57;;;17.20;99.90;;;;;;5152807;27;20046;-74
2022/08/12 02:36:38;;;;;;;11.97;5.37;;;17.20;99.90;;;;;;5110831;28;20394;-76
2022/08/12 02:39:05;;;;;;;10.48;5.40;;;17.10;99.90;;;;;;5147230;27;20050;-75
2022/08/12 02:41:33;;;;;;;10.88;5.32;;;17.10;99.90;;;;;;5132113;27;20376;-76
2022/08/12 02:44:07;;;;;;;11.27;5.43;;;17.00;99.90;;;;;;5134789;27;20134;-76
2022/08/12 02:46:33;;;;;;;10.07;5.32;;;17.00;99.90;;;;;;5134299;27;20062;-75
2022/08/12 02:49:05;;;;;;;10.68;5.47;;;;;;;;;;5113958;28;20498;-74
2022/08/12 02:51:38;;;;;;;9.68;5.10;;;17.00;99.90;;;;;;5113111;28;20107;-73
2022/08/12 02:54:06;;;;;;;12.13;5.75;;;16.90;99.90;;;;;;5120203;28;20043;-76
2022/08/12 02:56:41;;;;;;;11.75;6.20;;;16.90;99.90;;;;;;5132077;28;20054;-75
2022/08/12 02:59:15;;;;;;;11.95;6.10;;;16.90;99.90;;;;;;5116142;28;20474;-75
2022/08/12 03:01:58;;;;;;;14.13;5.55;;;16.90;99.90;;;;;;5134492;27;20039;-75
2022/08/12 03:04:25;;;;;;;9.88;5.85;;;16.80;99.90;;;;;;5133091;28;20047;-76
2022/08/12 03:07:08;;;;;;;8.20;5.40;;;16.80;99.90;;;;;;5134413;27;20055;-74
2022/08/12 03:09:44;;;;;;;11.18;5.55;;;16.80;99.90;;;;;;5131518;27;20043;-75
2022/08/12 03:12:11;;;;;;;12.00;5.53;;;16.80;99.90;;;;;;5133038;27;20043;-75
2022/08/12 03:14:44;;;;;;;10.60;5.80;;;16.80;99.90;;;;;;5131892;28;20051;-74
2022/08/12 03:17:28;;;;;;;9.73;5.53;;;16.70;99.90;;;;;;5133323;27;20047;-73
2022/08/12 03:19:56;;;;;;;11.90;5.40;;;16.70;99.90;;;;;;5119358;28;20120;-75
2022/08/12 03:22:22;;;;;;;9.52;5.13;;;16.70;99.90;;;;;;5111928;28;20046;-74
2022/08/12 03:24:49;;;;;;;10.10;5.47;;;16.70;99.90;;;;;;5125169;28;20133;-74
2022/08/12 03:27:16;;;;;;;11.45;6.20;;;16.70;99.90;;;;;;5132200;28;20070;-73
2022/08/12 03:29:46;;;;;;;11.30;6.18;;;16.60;99.90;;;;;;5132204;27;20084;-74
2022/08/12 03:32:13;;;;;;;10.38;6.10;;;16.60;99.90;;;;;;5133569;27;20548;-75
2022/08/12 03:34:40;;;;;;;11.20;6.30;;;16.50;99.90;;;;;;5131856;27;20065;-74
2022/08/12 03:37:07;;;;;;;10.05;6.25;;;16.50;99.90;;;;;;5134759;27;20130;-74
2022/08/12 03:42:10;;;;;;;11.30;6.38;;;16.50;99.90;;;;;;5122982;27;19926;-74
2022/08/12 04:01:57;;;;;;;13.13;6.75;;;16.40;99.90;;;;;;5157125;27;20038;-76
2022/08/12 04:04:34;;;;;;;14.07;6.50;;;16.40;99.90;;;;;;5120909;27;20484;-76
2022/08/12 04:07:07;;;;;;;11.75;6.50;;;16.40;99.90;;;;;;5122385;27;20378;-75
2022/08/12 04:09:36;;;;;;;10.75;6.22;;;16.30;99.90;;;;;;5153301;27;20046;-75
2022/08/12 04:14:48;;;;;;;10.45;5.90;;;16.30;99.90;;;;;;5154956;27;20046;-73
2022/08/12 04:17:15;;;;;;;13.80;6.03;;;16.30;99.90;;;;;;5156086;27;20205;-75
2022/08/12 04:19:41;;;;;;;11.98;6.18;;;16.30;99.90;;;;;;5154323;27;20046;-75
2022/08/12 04:22:08;;;;;;;;;;;16.30;99.90;;;;;;5137381;27;20492;-74
2022/08/12 04:24:34;;;;;;;13.02;5.97;;;16.30;99.90;;;;;;5150010;27;19919;-75
2022/08/12 04:27:02;;;;;;;12.88;6.68;;;16.30;99.90;;;;;;5155379;27;20061;-75
2022/08/12 04:29:28;;;;;;;12.98;6.15;;;16.30;99.90;;;;;;5136147;27;20046;-78
2022/08/12 04:31:54;;;;;;;10.73;6.20;;;16.40;99.90;;;;;;5154786;27;20042;-75
2022/08/12 04:34:22;;;;;;;11.52;6.82;;;16.30;99.90;;;;;;5154075;27;20094;-79
2022/08/12 04:36:48;;;;;;;13.30;7.05;;;16.30;99.90;;;;;;5115544;27;20112;-74
2022/08/12 04:39:15;;;;;;;13.25;6.68;;;16.40;99.90;;;;;;5130822;27;20074;-74
2022/08/12 04:41:41;;;;;;;13.65;7.13;;;16.40;99.90;;;;;;5152913;27;20073;-75
2022/08/12 04:44:07;;;;;;;15.57;6.72;;;16.40;99.90;;;;;;5153823;27;20047;-76
2022/08/12 04:46:34;;;;;;;12.00;6.68;;;16.50;99.90;;;;;;5153985;27;20097;-76
2022/08/12 04:49:01;;;;;;;12.30;6.87;;;16.50;99.90;;;;;;5153926;27;20034;-75
2022/08/12 04:51:28;;;;;;;13.02;6.45;;;16.50;99.90;;;;;;5118929;27;20126;-78
2022/08/12 04:53:54;;;;;;;11.98;6.70;;;16.60;99.90;;;;;;5134418;27;20078;-75
2022/08/12 04:56:20;;;;;;;12.27;7.10;;;16.60;99.90;;;;;;5134834;27;20038;-74
2022/08/12 04:58:46;;;;;;;12.67;7.07;;;16.70;99.90;;;;;;5153739;27;20091;-75
2022/08/12 05:01:12;;;;;;;12.33;7.10;;;16.70;99.90;;;;;;5135698;27;20374;-75
2022/08/12 05:03:38;;;;;;;12.80;6.55;;;16.80;99.90;;;;;;5134442;27;20054;-75
2022/08/12 05:06:05;;;;;;;11.02;6.47;;;16.90;99.90;;;;;;5154018;27;20046;-75
2022/08/12 05:08:32;;;;;;;11.07;6.13;;;16.90;99.90;;;;;;5135828;27;20043;-73
2022/08/12 05:10:58;;;;;;;11.23;6.47;;;16.90;99.90;;;;;;5153549;27;20070;-75
2022/08/12 05:13:55;;;;;;;11.83;6.10;;;17.10;99.90;;;;;;5153488;27;20195;-75
2022/08/12 05:16:20;;;;;;;13.07;6.55;;;17.10;99.90;;;;;;5134563;27;20175;-73
2022/08/12 05:18:46;;;;;;;10.43;6.17;;;17.20;99.90;;;;;;5133927;27;20544;-75
2022/08/12 05:21:12;;;;;;;10.50;6.03;;;17.20;99.90;;;;;;5135418;27;20039;-74
2022/08/12 05:23:39;;;;;;;10.03;6.40;;;17.20;99.90;;;;;;5152502;27;20121;-74
2022/08/12 05:26:05;;;;;;;11.55;6.50;;;17.30;99.90;;;;;;5152403;27;20046;-75
2022/08/12 05:28:32;;;;;;;15.68;7.25;;;17.30;99.90;;;;;;5152972;27;20054;-76
2022/08/12 05:31:02;;;;;;;11.35;6.47;;;17.30;99.90;;;;;;5152138;27;20129;-74
2022/08/12 05:33:36;;;;;;;11.55;6.35;;;17.40;99.90;;;;;;5153611;27;20043;-75
2022/08/12 05:36:06;;;;;;;12.93;6.85;;;17.40;99.90;;;;;;5133782;27;20115;-75
2022/08/12 05:41:20;;;;;;;12.35;6.70;;;17.50;99.90;;;;;;5152378;27;20063;-76
2022/08/12 05:43:47;;;;;;;13.20;6.82;;;17.60;99.90;;;;;;5116757;27;20048;-76
2022/08/12 05:46:13;;;;;;;14.70;6.78;;;17.60;99.90;;;;;;5152813;27;20078;-75
2022/08/12 05:48:40;;;;;;;9.50;6.28;;;17.70;99.90;;;;;;5115116;27;20074;-81
2022/08/12 05:51:06;;;;;;;11.20;5.85;;;17.70;99.90;;;;;;5114395;27;20050;-74
2022/08/12 05:53:32;;;;;;;12.13;6.13;;;17.80;99.90;;;;;;5135324;27;20057;-75
2022/08/12 05:55:58;;;;;;;11.57;6.03;;;17.90;99.90;;;;;;5150866;27;20128;-78
2022/08/12 05:58:24;;;;;;;12.10;5.73;;;17.90;99.90;;;;;;5134611;27;20130;-76
2022/08/12 06:00:49;;;;;;;12.17;5.30;;;18.00;99.90;;;;;;5133587;27;20082;-76
2022/08/12 06:03:16;;;;;;;10.50;5.70;;;18.00;99.90;;;;;;5153180;27;20039;-73
2022/08/12 06:05:45;;;;;;;10.48;5.50;;;18.10;99.90;;;;;;5134884;27;20051;-76
2022/08/12 06:08:11;;;;;;;14.80;5.63;;;18.10;99.90;;;;;;5153438;27;20050;-75
2022/08/12 06:10:37;;;;;;;10.57;5.37;;;18.20;99.90;;;;;;5133938;27;20051;-75
2022/08/12 06:13:05;;;;;;;10.10;5.77;;;18.30;99.90;;;;;;5153148;27;20450;-74
2022/08/12 06:15:36;;;;;;;12.93;5.20;;;18.40;99.90;;;;;;5132884;27;20053;-74
2022/08/12 06:18:10;;;;;;;10.50;5.53;;;18.40;99.90;;;;;;5117333;27;20080;-75
2022/08/12 06:20:38;;;;;;;10.50;5.50;;;18.50;99.90;;;;;;5118002;27;20057;-76
2022/08/12 06:23:04;;;;;;;10.13;5.68;;;18.60;99.90;;;;;;5134500;27;20075;-75
2022/08/12 06:25:30;;;;;;;13.63;5.70;;;18.60;99.90;;;;;;5151276;27;20146;-74
2022/08/12 06:27:58;;;;;;;10.18;5.57;;;18.70;99.90;;;;;;5117592;27;20403;-78
2022/08/12 06:30:28;;;;;;;11.52;5.65;;;18.70;99.90;;;;;;5132677;27;20047;-75
2022/08/12 06:32:55;;;;;;;12.93;5.78;;;18.80;99.90;;;;;;5132494;27;20512;-74
2022/08/12 06:35:21;;;;;;;11.90;5.47;;;18.90;99.90;;;;;;5133976;27;20394;-75
2022/08/12 06:37:50;;;;;;;12.63;5.73;;;18.90;99.90;;;;;;5116545;27;20099;-75
2022/08/12 06:42:46;;;;;;;10.57;5.13;;;18.90;99.90;;;;;;5152420;27;20059;-74
2022/08/12 06:43:06;;;;;;;13.90;5.47;;;19.00;99.90;;;;;;5118603;27;20089;-76
2022/08/12 06:45:43;;;;;;;11.77;5.53;;;19.10;99.90;;;;;;5152460;27;20058;-75
2022/08/12 06:48:09;;;;;;;10.98;5.10;;;19.20;99.90;;;;;;5096919;28;20547;-76
2022/08/12 06:50:36;;;;;;;11.00;5.10;;;19.30;99.90;;;;;;5132724;28;20108;-76
2022/08/12 06:53:03;;;;;;;9.48;4.80;;;19.30;99.90;;;;;;5131122;28;20498;-74
2022/08/12 06:55:29;;;;;;;;;;;19.40;99.90;;;;;;5151146;27;20062;-77
2022/08/12 06:57:59;;;;;;;10.02;4.50;;;19.50;99.90;;;;;;5151757;27;19919;-75
2022/08/12 07:00:27;;;;;;;11.55;4.90;;;19.60;99.90;;;;;;5134232;27;20049;-75
2022/08/12 07:02:57;;;;;;;10.73;5.10;;;19.70;99.90;;;;;;5152489;27;20096;-76
2022/08/12 07:05:24;;;;;;;12.30;5.32;;;19.90;99.90;;;;;;5150086;27;20062;-76
2022/08/12 07:08:11;;;;;;;9.25;4.32;;;20.10;99.90;;;;;;5151942;27;20070;-75
2022/08/12 07:10:56;;;;;;;7.05;4.43;;;20.20;99.90;;;;;;5117509;27;20054;-76
2022/08/12 07:13:37;;;;;;;8.93;4.55;;;20.30;99.90;;;;;;5135464;27;20050;-76
2022/08/12 07:16:04;;;;;;;9.90;4.15;;;20.50;99.90;;;;;;5139593;27;20046;-74
2022/08/12 07:18:33;;;;;;;10.25;4.25;;;20.60;99.90;;;;;;5153273;27;20054;-75
2022/08/12 07:21:02;;;;;;;8.95;4.20;;;20.70;99.90;;;;;;5158742;27;20125;-75
2022/08/12 07:23:30;;;;;;;8.73;3.95;;;20.80;99.90;;;;;;5166324;27;20108;-75
2022/08/12 07:25:56;;;;;;;10.98;4.10;;;20.90;99.90;;;;;;5147803;27;20075;-73
2022/08/12 07:28:26;;;;;;;6.28;3.83;;;20.90;99.90;;;;;;5107731;27;20073;-75
2022/08/12 07:30:53;;;;;;;7.93;3.70;;;21.10;99.90;;;;;;5122712;27;20058;-75
2022/08/12 07:33:22;;;;;;;7.93;4.60;;;21.20;99.90;;;;;;5143494;27;20601;-76
2022/08/12 07:35:51;;;;;;;8.93;3.88;;;21.30;99.90;;;;;;5164947;27;20043;-75
2022/08/12 07:38:29;;;;;;;11.05;3.55;;;21.30;99.90;;;;;;5166735;27;20042;-75
2022/08/12 07:41:07;;;;;;;9.40;3.45;;;21.50;99.90;;;;;;5168264;27;20122;-74
2022/08/12 07:43:35;;;;;;;7.05;3.67;;;21.60;99.90;;;;;;5127318;27;20133;-76
2022/08/12 07:46:03;;;;;;;9.00;3.78;;;21.70;99.90;;;;;;5127440;27;20092;-75
2022/08/12 07:48:35;;;;;;;7.85;3.85;;;21.90;99.90;;;;;;5163809;27;20064;-76
2022/08/12 07:51:01;;;;;;;8.43;3.47;;;22.00;99.90;;;;;;5169423;27;20051;-75
2022/08/12 07:53:27;;;;;;;9.27;3.60;;;22.20;99.90;;;;;;5170016;27;20152;-72
2022/08/12 07:55:53;;;;;;;7.67;3.57;;;22.30;99.90;;;;;;5168374;27;20046;-83
2022/08/12 07:58:22;;;;;;;8.87;3.13;;;22.50;99.90;;;;;;5165448;27;20046;-73
2022/08/12 08:00:48;;;;;;;8.57;2.95;;;22.50;99.90;;;;;;5164619;27;20482;-74
2022/08/12 08:03:15;;;;;;;13.20;3.30;;;22.60;99.90;;;;;;5164269;27;20096;-75
2022/08/12 08:05:48;;;;;;;5.55;3.05;;;22.70;99.90;;;;;;5131950;27;20434;-76
2022/08/12 08:08:23;;;;;;;10.68;3.40;;;22.80;99.90;;;;;;5141367;27;20031;-75
2022/08/12 08:10:51;;;;;;;5.18;2.78;;;22.90;99.90;;;;;;5143262;27;20046;-77
2022/08/12 08:13:17;;;;;;;11.10;3.17;;;23.20;99.90;;;;;;5136870;27;20498;-76
2022/08/12 08:15:46;;;;;;;9.52;3.20;;;23.30;99.90;;;;;;5121887;27;20061;-76
2022/08/12 08:18:15;;;;;;;7.57;2.88;;;23.50;99.90;;;;;;5141345;27;20382;-77
2022/08/12 08:20:43;;;;;;;7.35;2.75;;;23.50;99.90;;;;;;5157902;27;20047;-76
2022/08/12 08:23:14;;;;;;;11.27;2.97;;;23.60;99.90;;;;;;5120659;27;20045;-76
2022/08/12 08:25:40;;;;;;;8.57;2.92;;;23.70;99.90;;;;;;5155195;27;20083;-75
2022/08/12 08:28:09;;;;;;;10.50;3.10;;;23.90;99.90;;;;;;5137875;27;20051;-75
2022/08/12 08:30:41;;;;;;;5.07;2.80;;;24.10;98.70;;;;;;5136327;27;20443;-77
2022/08/12 08:33:10;;;;;;;5.65;3.05;;;24.20;99.10;;;;;;5154719;27;20117;-75
2022/08/12 08:35:40;;;;;;;6.63;3.17;;;24.20;98.80;;;;;;5137062;27;20450;-76
2022/08/12 08:38:07;;;;;;;6.10;2.95;;;24.30;98.90;;;;;;5154371;27;20052;-78
2022/08/12 08:43:24;;;;;;;9.70;3.22;;;24.60;96.80;;;;;;5155150;27;20490;-74
2022/08/12 08:45:50;;;;;;;10.32;3.10;;;24.80;95.30;;;;;;5155803;27;20059;-76
2022/08/12 08:48:16;;;;;;;6.60;3.30;;;24.90;96.20;;;;;;5116293;27;20116;-76
2022/08/12 08:50:43;;;;;;;9.68;3.50;;;24.90;96.40;;;;;;5151940;27;20439;-77
2022/08/12 08:53:10;;;;;;;12.43;3.50;;;25.20;94.90;;;;;;5133674;27;20452;-76
2022/08/12 08:55:35;;;;;;;9.38;3.30;;;25.20;95.70;;;;;;5114663;27;20065;-77
2022/08/12 08:58:02;;;;;;;12.87;3.50;;;25.40;95.20;;;;;;5125135;27;20474;-77
2022/08/12 09:00:29;;;;;;;6.50;3.28;;;25.40;95.90;;;;;;5153120;27;20065;-75
2022/08/12 09:02:54;;;;;;;9.75;4.47;;;25.50;95.00;;;;;;5135948;27;20078;-75
2022/08/12 09:05:20;;;;;;;12.27;3.63;;;25.60;94.30;;;;;;5152739;27;20104;-76
2022/08/12 09:07:48;;;;;;;8.43;3.38;;;25.70;94.60;;;;;;5135667;27;20323;-76
2022/08/12 09:10:18;;;;;;;6.55;3.35;;;25.70;94.00;;;;;;5131799;27;20047;-76
2022/08/12 09:15:30;;;;;;;10.40;3.20;;;25.90;92.80;;;;;;5151513;27;20055;-76
2022/08/12 09:17:58;;;;;;;7.40;3.28;;;26.00;92.70;;;;;;5135167;27;20054;-76
2022/08/12 09:20:26;;;;;;;6.55;2.80;;;26.10;93.10;;;;;;5118208;27;20051;-74
2022/08/12 09:22:53;;;;;;;9.95;3.65;;;26.10;93.10;;;;;;5118582;27;20091;-74
2022/08/12 09:25:26;;;;;;;7.00;3.38;;;26.30;91.20;;;;;;5133223;27;20042;-76
2022/08/12 09:27:53;;;;;;;8.50;3.33;;;26.40;90.50;;;;;;5154139;27;20077;-74
2022/08/12 09:30:20;;;;;;;11.32;3.95;;;26.50;90.50;;;;;;5133445;27;20382;-77
2022/08/12 09:32:49;;;;;;;7.45;3.50;;;26.60;87.90;;;;;;5153958;27;20485;-74
2022/08/12 09:35:26;;;;;;;15.52;3.80;;;26.70;86.20;;;;;;5151931;27;20397;-75
2022/08/12 09:37:54;;;;;;;8.27;3.20;;;26.80;86.90;;;;;;5135880;27;20038;-79
2022/08/12 09:40:21;;;;;;;9.98;3.45;;;26.80;87.00;;;;;;5153942;27;20502;-77
2022/08/12 09:45:33;;;;;;;11.00;3.65;;;27.10;85.70;;;;;;5152988;27;20046;-75
2022/08/12 09:48:05;;;;;;;;;;;27.30;83.50;;;;;;5140809;27;20443;-74
2022/08/12 09:50:34;;;;;;;8.45;3.72;;;27.30;83.50;;;;;;5101010;27;20059;-73
2022/08/12 09:53:08;;;;;;;11.35;3.40;;;27.50;80.60;;;;;;5099940;27;20138;-74
2022/08/12 09:55:34;;;;;;;8.50;3.50;;;27.50;81.30;;;;;;5115544;27;20239;-76
2022/08/12 09:58:01;;;;;;;7.13;3.20;;;27.50;82.20;;;;;;5136133;27;20049;-75
2022/08/12 10:00:27;;;;;;;;;;;27.50;82.40;;;;;;5150221;27;20042;-74
2022/08/12 10:02:59;;;;;;;;;;;27.50;80.20;;;;;;5133410;27;20318;-75
2022/08/12 10:05:25;;;;;;;8.43;3.30;;;27.60;80.60;;;;;;5129989;27;19919;-76
2022/08/12 10:07:50;;;;;;;12.82;3.78;;;27.70;81.60;;;;;;5153072;27;22151;-75
2022/08/12 10:10:16;;;;;;;6.50;3.45;;;27.70;78.80;;;;;;5116064;27;20050;-75
2022/08/12 10:15:27;;;;;;;9.38;3.63;;;27.80;77.40;;;;;;5132759;27;20043;-74
2022/08/12 10:17:53;;;;;;;7.00;3.40;;;27.90;79.00;;;;;;5134867;27;20062;-77
2022/08/12 10:20:19;;;;;;;7.35;3.17;;;27.90;78.70;;;;;;5136205;27;20375;-76
2022/08/12 10:22:59;;;;;;;10.80;3.67;;;28.00;78.70;;;;;;5123087;27;20039;-75
2022/08/12 10:30:53;;;;;;;9.20;3.60;;;28.30;71.60;;;;;;5152956;27;20434;-74
2022/08/12 10:33:19;;;;;;;11.27;3.10;;;28.30;73.80;;;;;;5116224;27;20134;-75
2022/08/12 10:35:45;;;;;;;8.25;3.13;;;28.30;72.20;;;;;;5152155;27;20133;-77
2022/08/12 10:38:12;;;;;;;10.95;3.47;;;28.50;71.00;;;;;;5114874;27;20051;-81
2022/08/12 10:43:39;;;;;;;7.50;3.30;;;28.50;72.20;;;;;;5123142;28;20114;-74
2022/08/12 10:43:41;;;;;;;6.32;3.25;;;28.50;71.40;;;;;;5146163;27;20058;-76
2022/08/12 10:46:17;;;;;;;7.53;3.58;;;28.60;69.90;;;;;;5118776;27;20046;-75
2022/08/12 10:48:50;;;;;;;7.30;3.30;;;28.60;66.50;;;;;;5153149;27;20042;-75
2022/08/12 10:51:17;;;;;;;7.65;3.40;;;28.50;67.60;;;;;;5152468;27;20043;-73
2022/08/12 10:53:45;;;;;;;5.35;3.00;;;28.70;66.60;;;;;;5135969;27;20358;-75
2022/08/12 10:56:11;;;;;;;5.75;3.30;;;28.90;66.00;;;;;;5133943;27;20049;-75
2022/08/12 10:58:37;;;;;;;;;;;28.90;66.20;;;;;;5135382;27;20054;-75
2022/08/12 11:01:05;;;;;;;8.80;3.15;;;28.90;67.70;;;;;;5155806;27;19932;-78
2022/08/12 11:03:36;;;;;;;4.63;2.50;;;29.00;64.40;;;;;;5138133;27;20704;-76
2022/08/12 11:06:06;;;;;;;6.07;2.90;;;29.00;66.40;;;;;;5137218;27;20038;-76
2022/08/12 11:08:34;;;;;;;8.38;2.60;;;29.00;65.70;;;;;;5134132;27;20039;-74
2022/08/12 11:11:00;;;;;;;5.60;3.08;;;29.00;65.20;;;;;;5132574;27;20091;-75
2022/08/12 11:13:26;;;;;;;;;;;29.10;64.90;;;;;;5134514;27;20047;-75
2022/08/12 11:15:54;;;;;;;;;;;29.10;66.50;;;;;;5133152;27;19926;-75
2022/08/12 11:18:21;;;;;;;9.30;3.67;;;29.10;61.50;;;;;;5118495;27;19919;-75
2022/08/12 11:20:47;;;;;;;8.63;3.20;;;29.10;61.40;;;;;;5140262;27;20443;-76
2022/08/12 11:23:13;;;;;;;10.85;3.75;;;29.10;61.00;;;;;;5118921;27;20050;-80
2022/08/12 11:25:43;;;;;;;10.55;3.67;;;29.10;62.80;;;;;;5132718;27;20054;-76
2022/08/12 11:28:09;;;;;;;7.95;3.38;;;29.10;63.50;;;;;;5134263;27;20474;-75
2022/08/12 11:30:35;;;;;;;;;;;29.20;63.60;;;;;;5151609;27;20042;-76
2022/08/12 11:33:01;;;;;;;8.95;3.35;;;29.20;63.80;;;;;;5153893;27;19933;-77
2022/08/12 11:35:26;;;;;;;8.63;3.20;;;29.30;62.50;;;;;;5151721;27;20043;-73
2022/08/12 11:37:54;;;;;;;12.30;3.50;;;29.30;60.60;;;;;;5134818;27;20050;-75
2022/08/12 11:40:20;;;;;;;7.32;3.28;;;29.30;61.50;;;;;;5133397;27;20075;-77
2022/08/12 11:42:46;;;;;;;8.65;2.90;;;29.40;57.60;;;;;;5134156;27;20055;-76
2022/08/12 11:45:11;;;;;;;10.52;2.83;;;29.40;58.10;;;;;;5151658;27;20446;-78
2022/08/12 11:47:37;;;;;;;6.50;2.67;;;29.50;58.60;;;;;;5152180;27;20121;-76
2022/08/12 11:50:04;;;;;;;10.90;3.20;;;29.50;58.90;;;;;;5133662;27;20043;-75
2022/08/12 11:52:30;;;;;;;10.60;3.25;;;29.50;60.10;;;;;;5152581;27;20038;-74
2022/08/12 11:54:57;;;;;;;7.30;3.13;;;29.60;59.90;;;;;;5151266;27;20039;-74
2022/08/12 11:57:22;;;;;;;10.50;3.10;;;29.70;60.20;;;;;;5096021;28;20051;-73
2022/08/12 11:59:49;;;;;;;6.38;3.22;;;29.80;59.10;;;;;;5130548;28;20082;-74
2022/08/12 12:02:16;;;;;;;8.52;2.90;;;29.80;58.90;;;;;;5132263;28;20127;-75
2022/08/12 12:04:42;;;;;;;10.32;2.67;;;29.90;58.70;;;;;;5144312;27;20038;-75
2022/08/12 12:07:07;;;;;;;7.65;3.10;;;30.00;57.90;;;;;;5120742;27;20335;-76
2022/08/12 12:09:37;;;;;;;5.82;3.00;;;30.00;57.30;;;;;;5156577;27;20510;-76
2022/08/12 12:12:04;;;;;;;6.50;3.10;;;29.90;57.60;;;;;;5129730;27;20038;-73
2022/08/12 12:14:30;;;;;;;7.47;3.15;;;29.90;57.40;;;;;;5150306;27;20068;-74
2022/08/12 12:16:56;;;;;;;;;;;30.00;56.80;;;;;;5161523;27;20469;-75
2022/08/12 12:19:22;;;;;;;6.60;3.40;;;29.90;57.40;;;;;;5161302;27;20018;-80
2022/08/12 12:21:53;;;;;;;7.28;3.00;;;29.90;56.70;;;;;;5142435;27;20042;-75
2022/08/12 12:24:19;;;;;;;6.65;3.05;;;30.00;54.80;;;;;;5105717;27;20125;-81
2022/08/12 12:26:45;;;;;;;8.13;3.30;;;30.00;55.80;;;;;;5155370;27;20102;-75
2022/08/12 12:29:10;;;;;;;7.80;3.38;;;29.90;55.00;;;;;;5138248;27;20050;-76
2022/08/12 12:31:36;;;;;;;9.18;3.45;;;30.00;56.30;;;;;;5155518;27;20487;-76
2022/08/12 12:34:02;;;;;;;6.55;3.30;;;30.00;55.30;;;;;;5137405;27;20045;-76
2022/08/12 12:36:27;;;;;;;10.50;3.50;;;30.00;56.30;;;;;;5149293;27;20043;-76
2022/08/12 12:38:53;;;;;;;10.23;3.65;;;30.00;56.20;;;;;;5119563;27;20084;-74
2022/08/12 12:41:19;;;;;;;13.15;3.03;;;30.00;55.10;;;;;;5103799;27;20042;-75
2022/08/12 12:43:45;;;;;;;8.50;3.40;;;30.10;55.20;;;;;;5103830;27;20080;-75
2022/08/12 12:46:10;;;;;;;9.77;3.67;;;30.10;55.10;;;;;;5139222;27;20078;-75
2022/08/12 12:48:36;;;;;;;7.38;3.53;;;30.20;55.40;;;;;;5135036;27;20043;-75
2022/08/12 12:51:17;;;;;;;11.27;3.70;;;30.20;55.60;;;;;;5140868;27;20043;-74
2022/08/12 12:53:48;;;;;;;9.07;3.88;;;30.20;53.80;;;;;;5119390;27;20578;-76
2022/08/12 12:56:21;;;;;;;7.68;3.47;;;30.20;53.60;;;;;;5115190;27;20053;-74
2022/08/12 12:58:52;;;;;;;8.80;3.40;;;30.20;53.10;;;;;;5146994;27;20562;-73
2022/08/12 13:01:26;;;;;;;9.85;3.95;;;30.20;53.00;;;;;;5155377;27;20051;-75
2022/08/12 13:03:53;;;;;;;10.55;3.70;;;30.30;54.10;;;;;;5114063;27;20115;-74
2022/08/12 13:06:24;;;;;;;7.55;3.33;;;30.30;54.00;;;;;;5099592;27;20519;-74
2022/08/12 13:08:54;;;;;;;9.82;3.70;;;30.40;54.00;;;;;;5143875;27;20053;-76
2022/08/12 13:11:20;;;;;;;7.30;3.50;;;30.40;54.40;;;;;;5136437;27;20147;-74
2022/08/12 13:13:51;;;;;;;5.68;3.75;;;30.40;53.50;;;;;;5154273;27;20046;-74
2022/08/12 13:16:21;;;;;;;15.40;3.97;;;30.50;52.50;;;;;;5137069;27;20048;-74
2022/08/12 13:18:51;;;;;;;8.48;3.72;;;30.50;53.10;;;;;;5138241;27;20043;-75
2022/08/12 13:21:17;;;;;;;6.60;3.55;;;30.60;52.70;;;;;;5138419;27;20058;-73
2022/08/12 13:23:49;;;;;;;8.45;3.92;;;30.60;51.90;;;;;;5122492;27;20043;-74
2022/08/12 13:26:17;;;;;;;8.55;3.40;;;30.60;52.50;;;;;;5136415;27;20118;-75
2022/08/12 13:28:45;;;;;;;9.30;3.97;;;30.60;50.20;;;;;;5137103;27;20042;-75
2022/08/12 13:31:15;;;;;;;8.60;3.42;;;30.40;48.60;;;;;;5137246;27;20117;-74
2022/08/12 13:33:41;;;;;;;10.52;4.03;;;30.30;49.90;;;;;;5137350;27;20496;-76
2022/08/12 13:36:09;;;;;;;8.13;3.80;;;30.40;50.90;;;;;;5136973;27;20043;-77
2022/08/12 13:38:39;;;;;;;9.02;3.90;;;30.50;51.10;;;;;;5116418;27;20039;-75
2022/08/12 13:41:31;;;;;;;9.63;3.75;;;30.60;51.00;;;;;;5131823;27;20161;-76
2022/08/12 13:44:02;;;;;;;11.00;4.20;;;30.60;50.50;;;;;;5138010;27;20165;-74
2022/08/12 13:46:28;;;;;;;9.65;4.00;;;30.60;50.50;;;;;;5154843;27;20069;-82
2022/08/12 13:48:55;;;;;;;10.63;4.07;;;30.60;50.60;;;;;;5099262;27;20043;-76
2022/08/12 13:51:21;;;;;;;8.27;3.67;;;30.70;50.00;;;;;;5117983;27;20055;-74
2022/08/12 13:53:47;;;;;;;9.30;3.80;;;30.60;49.70;;;;;;5154539;27;20046;-75
2022/08/12 13:56:13;;;;;;;6.05;3.40;;;30.60;50.00;;;;;;5135423;27;20047;-75
2022/08/12 13:58:43;;;;;;;13.18;3.92;;;30.60;50.60;;;;;;5135456;27;20546;-77
2022/08/12 14:01:09;;;;;;;9.25;3.33;;;30.60;49.80;;;;;;5138167;27;20118;-74
2022/08/12 14:03:36;;;;;;;7.10;3.85;;;30.60;50.30;;;;;;5162053;27;20146;-75
2022/08/12 14:06:03;;;;;;;9.32;3.78;;;30.70;50.60;;;;;;5137702;27;20131;-76
2022/08/12 14:08:29;;;;;;;11.30;4.05;;;30.70;49.90;;;;;;5152447;27;20116;-83
2022/08/12 14:10:55;;;;;;;8.27;4.10;;;30.80;49.50;;;;;;5133868;27;20042;-75
2022/08/12 14:13:25;;;;;;;6.32;3.75;;;30.80;49.60;;;;;;5152657;27;20066;-75
2022/08/12 14:15:53;;;;;;;9.63;3.90;;;30.80;49.70;;;;;;5136727;27;20043;-77
2022/08/12 14:18:26;;;;;;;14.70;4.05;;;30.90;49.30;;;;;;5135033;27;20038;-75
2022/08/12 14:20:57;;;;;;;9.55;3.72;;;30.90;49.40;;;;;;5113513;27;20097;-75
2022/08/12 14:23:25;;;;;;;9.68;3.80;;;30.80;49.00;;;;;;5114938;27;20031;-78
2022/08/12 14:25:59;;;;;;;8.32;3.67;;;30.80;49.40;;;;;;5124306;27;20122;-75
2022/08/12 14:28:26;;;;;;;8.23;4.13;;;30.80;49.60;;;;;;5097493;27;20151;-74
2022/08/12 14:30:53;;;;;;;10.20;4.30;;;30.90;49.10;;;;;;5125635;27;20069;-76
2022/08/12 14:33:23;;;;;;;9.35;4.32;;;30.90;48.30;;;;;;5133891;27;20034;-74
2022/08/12 14:35:50;;;;;;;18.02;4.50;;;30.80;48.50;;;;;;5134591;27;20046;-76
2022/08/12 14:38:30;;;;;;;12.00;4.32;;;30.90;49.30;;;;;;5153024;27;20107;-75
2022/08/12 14:41:00;;;;;;;9.40;4.82;;;30.90;47.60;;;;;;5133241;27;20078;-76
2022/08/12 14:43:32;;;;;;;9.38;4.30;;;30.90;49.00;;;;;;5142189;27;20059;-74